Time;durP1;ratioP1;P1;durP2;ratioP2;P2;SDS_P1;SDS_P2;PMS_P1;PMS_P2;Temp;Humidity;BMP_temperature;BMP_pressure;BME280_temperature;BME280_humidity;BME280_pressure;Samples;Min_cycle;Max_cycle;Signal;HPM_P1;HPM_P2
2022/07/02 09:26:19;;;;;;;2.47;1.73;;;21.00;91.70;;;;;;4923638;27;10002075;-73
2022/07/02 09:28:59;;;;;;;2.17;1.90;;;20.10;92.50;;;;;;5272956;27;20062;-73
2022/07/02 09:31:33;;;;;;;2.30;1.85;;;19.90;92.70;;;;;;5258299;27;20073;-72
2022/07/02 09:34:05;;;;;;;2.25;1.42;;;19.80;93.10;;;;;;5265836;27;20073;-73
2022/07/02 09:36:38;;;;;;;2.22;1.50;;;19.80;93.40;;;;;;5271806;27;20450;-72
2022/07/02 09:39:10;;;;;;;1.75;1.55;;;19.70;92.00;;;;;;5268812;27;20427;-73
2022/07/02 09:41:43;;;;;;;3.05;1.30;;;19.70;92.40;;;;;;5264045;27;20062;-72
2022/07/02 09:44:16;;;;;;;;;;;19.70;91.60;;;;;;5259543;27;20066;-69
2022/07/02 09:46:48;;;;;;;1.70;1.30;;;19.80;90.90;;;;;;5268458;27;19998;-73
2022/07/02 09:49:21;;;;;;;3.80;1.40;;;19.80;90.40;;;;;;5267837;27;20039;-71
2022/07/02 09:51:54;;;;;;;2.08;1.45;;;19.80;90.20;;;;;;5264221;27;20305;-73
2022/07/02 09:54:27;;;;;;;2.35;1.38;;;19.70;90.10;;;;;;5271994;27;20473;-70
2022/07/02 09:57:00;;;;;;;1.10;1.00;;;19.70;91.20;;;;;;5258984;27;20055;-72
2022/07/02 09:59:36;;;;;;;4.15;1.02;;;19.80;91.20;;;;;;5262532;27;20044;-70
2022/07/02 10:02:25;;;;;;;1.38;1.10;;;19.90;91.00;;;;;;5261304;27;20044;-72
2022/07/02 10:04:58;;;;;;;1.33;1.20;;;20.00;90.30;;;;;;5267867;27;20043;-71
2022/07/02 10:07:31;;;;;;;1.60;1.20;;;20.10;89.00;;;;;;5269578;27;20054;-69
2022/07/02 10:10:05;;;;;;;1.98;1.20;;;20.10;89.80;;;;;;5276909;27;20047;-71
2022/07/02 10:12:38;;;;;;;1.45;0.82;;;20.20;90.60;;;;;;5273359;27;20043;-71
2022/07/02 10:15:15;;;;;;;2.72;1.13;;;20.40;89.10;;;;;;5269589;27;20052;-70
2022/07/02 10:17:48;;;;;;;1.02;0.93;;;20.40;88.10;;;;;;5264328;27;20048;-70
2022/07/02 10:20:22;;;;;;;1.38;1.27;;;20.50;86.60;;;;;;5266408;27;20090;-71
2022/07/02 10:22:58;;;;;;;1.67;1.10;;;20.50;87.30;;;;;;5271336;27;20043;-70
2022/07/02 10:25:32;;;;;;;1.35;1.25;;;20.70;85.30;;;;;;5263988;27;20566;-71
2022/07/02 10:28:05;;;;;;;0.80;0.80;;;20.70;81.90;;;;;;5252488;27;20066;-71
2022/07/02 10:30:38;;;;;;;2.60;1.00;;;20.80;81.90;;;;;;5240737;27;20043;-71
2022/07/02 10:33:37;;;;;;;1.20;0.98;;;21.00;80.30;;;;;;5253012;27;20725;-71
2022/07/02 10:36:13;;;;;;;1.00;0.93;;;21.30;79.30;;;;;;5261834;27;20051;-71
2022/07/02 10:38:54;;;;;;;1.33;1.00;;;21.70;77.80;;;;;;5253282;28;20051;-71
2022/07/02 10:41:31;;;;;;;0.98;0.82;;;21.90;75.60;;;;;;5236067;27;20051;-71
2022/07/02 10:44:04;;;;;;;2.53;1.33;;;21.90;74.90;;;;;;5235700;27;20051;-71
2022/07/02 10:46:37;;;;;;;1.02;1.00;;;22.10;74.10;;;;;;5234727;28;20039;-71
2022/07/02 10:49:09;;;;;;;1.63;1.00;;;22.30;73.70;;;;;;5243428;27;20067;-70
2022/07/02 10:51:43;;;;;;;2.17;0.90;;;22.50;74.80;;;;;;5242160;28;20065;-70
2022/07/02 10:54:16;;;;;;;0.80;0.80;;;22.80;73.00;;;;;;5238648;28;20059;-71
2022/07/02 10:56:51;;;;;;;3.25;0.90;;;23.10;69.60;;;;;;5247931;28;20728;-71
2022/07/02 10:59:26;;;;;;;3.03;0.80;;;23.20;71.60;;;;;;5248770;28;20048;-71
2022/07/02 11:02:07;;;;;;;1.25;1.00;;;23.40;70.10;;;;;;5249837;27;20606;-70
2022/07/02 11:04:40;;;;;;;1.83;0.80;;;23.50;69.70;;;;;;5250422;28;20051;-71
2022/07/02 11:07:13;;;;;;;2.22;1.10;;;23.50;66.10;;;;;;5251107;27;20044;-71
2022/07/02 11:09:47;;;;;;;0.80;0.73;;;23.30;65.20;;;;;;5252821;28;20062;-70
2022/07/02 11:12:27;;;;;;;3.42;0.90;;;23.70;65.00;;;;;;5248590;28;20043;-71
2022/07/02 11:15:02;;;;;;;1.17;0.82;;;23.80;65.20;;;;;;5247407;27;20050;-71
2022/07/02 11:17:52;;;;;;;0.90;0.73;;;24.10;65.60;;;;;;5245353;27;20063;-71
2022/07/02 11:20:25;;;;;;;1.15;0.80;;;24.00;63.30;;;;;;5238761;28;20064;-70
2022/07/02 11:22:58;;;;;;;3.15;0.85;;;24.20;62.20;;;;;;5231151;27;20677;-71
2022/07/02 11:25:31;;;;;;;1.48;1.00;;;24.30;63.10;;;;;;5247051;28;20061;-71
2022/07/02 11:28:04;;;;;;;;;;;24.30;63.30;;;;;;5242970;27;20048;-71
2022/07/02 11:30:36;;;;;;;2.58;0.82;;;24.30;61.10;;;;;;5254816;28;19927;-70
2022/07/02 11:33:13;;;;;;;1.10;1.00;;;24.80;61.80;;;;;;5247092;27;20048;-70
2022/07/02 11:35:51;;;;;;;2.30;1.00;;;25.10;63.00;;;;;;5249363;27;20047;-69
2022/07/02 11:38:24;;;;;;;2.55;1.30;;;25.40;62.40;;;;;;5241605;27;20036;-71
2022/07/02 11:40:56;;;;;;;1.23;1.07;;;25.40;62.20;;;;;;5242762;27;20507;-69
2022/07/02 11:43:29;;;;;;;4.30;1.35;;;25.50;61.00;;;;;;5238607;28;20286;-69
2022/07/02 11:46:01;;;;;;;1.83;1.10;;;25.80;60.40;;;;;;5249728;28;20579;-71
2022/07/02 11:48:34;;;;;;;1.87;1.13;;;25.90;60.40;;;;;;5253695;27;20043;-71
2022/07/02 11:51:06;;;;;;;1.40;1.07;;;26.00;61.10;;;;;;5246983;28;20043;-71
2022/07/02 11:53:39;;;;;;;2.42;1.38;;;26.20;58.50;;;;;;5256468;28;20071;-70
2022/07/02 11:56:15;;;;;;;2.67;1.40;;;25.80;57.30;;;;;;5251463;27;20051;-71
2022/07/02 11:58:48;;;;;;;1.13;1.02;;;25.60;58.60;;;;;;5235760;28;20059;-72
2022/07/02 12:01:22;;;;;;;3.33;0.98;;;25.50;57.70;;;;;;5248364;28;20077;-70
2022/07/02 12:04:02;;;;;;;2.83;1.23;;;25.50;58.50;;;;;;5253637;28;20036;-71
2022/07/02 12:06:46;;;;;;;4.68;1.08;;;25.60;56.90;;;;;;5258874;27;20035;-72
2022/07/02 12:09:22;;;;;;;1.98;0.80;;;25.60;58.00;;;;;;5267453;28;21274;-70
2022/07/02 12:11:57;;;;;;;2.55;0.98;;;25.80;55.30;;;;;;5257834;27;20048;-71
2022/07/02 12:14:30;;;;;;;2.70;0.88;;;26.10;55.50;;;;;;5253240;28;20039;-71
2022/07/02 12:17:08;;;;;;;1.20;0.80;;;26.20;55.50;;;;;;5254422;28;20047;-72
2022/07/02 12:19:41;;;;;;;1.00;0.82;;;26.60;57.40;;;;;;5253340;28;20047;-72
2022/07/02 12:22:23;;;;;;;3.53;1.20;;;27.00;55.00;;;;;;5253870;28;20057;-71
2022/07/02 12:24:56;;;;;;;1.90;0.90;;;26.60;54.00;;;;;;5251621;28;20052;-70
2022/07/02 12:27:28;;;;;;;1.63;1.00;;;26.30;55.70;;;;;;5250555;28;20050;-70
2022/07/02 12:30:12;;;;;;;1.25;0.80;;;26.30;56.60;;;;;;5252021;27;20930;-72
2022/07/02 12:32:52;;;;;;;0.88;0.70;;;26.60;53.10;;;;;;5252928;28;20044;-72
2022/07/02 12:35:24;;;;;;;0.65;0.65;;;26.70;52.70;;;;;;5249194;28;20040;-71
2022/07/02 12:37:57;;;;;;;3.57;0.97;;;26.70;54.90;;;;;;5251962;28;20504;-71
2022/07/02 12:40:30;;;;;;;3.13;0.90;;;26.60;56.40;;;;;;5255925;28;20298;-72
2022/07/02 12:43:04;;;;;;;1.10;1.00;;;26.80;56.10;;;;;;5253307;28;20059;-71
2022/07/02 12:45:38;;;;;;;1.38;1.13;;;27.30;55.40;;;;;;5245955;27;20047;-71
2022/07/02 12:48:16;;;;;;;2.45;0.90;;;27.70;54.10;;;;;;5242306;28;20047;-71
2022/07/02 12:50:51;;;;;;;1.65;0.98;;;27.70;53.20;;;;;;5239460;28;20051;-73
2022/07/02 12:53:23;;;;;;;2.05;1.10;;;27.60;53.80;;;;;;5223252;28;20047;-74
2022/07/02 12:55:58;;;;;;;1.02;0.93;;;27.40;53.80;;;;;;5229432;28;20054;-72
2022/07/02 12:58:31;;;;;;;1.70;1.00;;;27.20;53.60;;;;;;5224050;28;20444;-72
2022/07/02 13:01:04;;;;;;;0.98;0.90;;;27.30;53.50;;;;;;5229362;28;20044;-73
2022/07/02 13:03:37;;;;;;;1.35;1.00;;;27.30;53.20;;;;;;5253467;27;20095;-72
2022/07/02 13:06:09;;;;;;;3.47;1.10;;;27.50;54.20;;;;;;5254576;28;20058;-73
2022/07/02 13:08:42;;;;;;;4.13;1.00;;;27.70;54.70;;;;;;5246112;28;20050;-73
2022/07/02 13:11:14;;;;;;;2.92;0.93;;;27.60;53.70;;;;;;5249592;28;20415;-72
2022/07/02 13:13:46;;;;;;;1.00;1.00;;;27.30;54.80;;;;;;5258989;28;20069;-72
2022/07/02 13:16:19;;;;;;;2.65;1.00;;;27.30;53.80;;;;;;5238308;28;20056;-73
2022/07/02 13:18:52;;;;;;;2.38;1.20;;;27.60;54.30;;;;;;5235683;28;20365;-72
2022/07/02 13:21:28;;;;;;;1.13;1.00;;;27.80;53.50;;;;;;5241578;28;20463;-72
2022/07/02 13:24:01;;;;;;;3.95;1.00;;;27.80;53.50;;;;;;3831606;28;10000365;-73
2022/07/02 13:26:34;;;;;;;4.00;1.10;;;28.00;54.80;;;;;;5240863;28;20048;-73
2022/07/02 13:29:06;;;;;;;3.88;1.08;;;27.90;53.20;;;;;;5233113;28;20297;-72
2022/07/02 13:31:39;;;;;;;3.33;0.87;;;28.00;53.30;;;;;;5241449;28;20074;-72
2022/07/02 13:34:11;;;;;;;1.08;0.98;;;28.00;52.60;;;;;;5232404;28;20298;-72
2022/07/02 13:36:44;;;;;;;1.10;1.00;;;28.00;53.90;;;;;;5239115;28;20044;-72
2022/07/02 13:39:16;;;;;;;2.07;1.10;;;28.50;53.70;;;;;;5236253;28;20118;-69
2022/07/02 13:41:49;;;;;;;1.63;1.10;;;28.00;53.60;;;;;;5240853;28;20308;-72
2022/07/02 13:44:21;;;;;;;3.20;1.02;;;27.90;53.60;;;;;;5237549;28;20330;-72
2022/07/02 13:46:55;;;;;;;2.40;1.23;;;27.80;53.10;;;;;;5246145;28;20781;-73
2022/07/02 13:49:27;;;;;;;3.75;1.52;;;27.80;53.90;;;;;;5235055;28;20300;-73
2022/07/02 13:52:00;;;;;;;3.45;1.00;;;28.10;53.80;;;;;;5238005;28;20059;-72
2022/07/02 13:54:33;;;;;;;1.63;1.08;;;28.20;53.90;;;;;;5242810;28;20052;-72
2022/07/02 13:57:05;;;;;;;1.23;1.00;;;27.90;53.70;;;;;;5232726;28;20056;-71
2022/07/02 13:59:38;;;;;;;1.00;0.90;;;28.30;52.90;;;;;;5228423;28;20056;-72
2022/07/02 14:02:10;;;;;;;4.00;1.25;;;28.50;53.10;;;;;;5239740;28;20054;-73
2022/07/02 14:04:43;;;;;;;3.42;1.05;;;28.10;53.10;;;;;;5225711;28;20048;-72
2022/07/02 14:07:16;;;;;;;2.08;1.23;;;28.10;53.00;;;;;;5232494;28;20048;-73
2022/07/02 14:09:49;;;;;;;4.00;1.23;;;28.30;52.40;;;;;;5226483;28;20067;-73
2022/07/02 14:12:22;;;;;;;1.30;0.85;;;28.50;52.30;;;;;;5229229;28;20960;-73
2022/07/02 14:14:54;;;;;;;1.75;1.05;;;28.70;51.80;;;;;;5243267;28;20054;-73
2022/07/02 14:17:27;;;;;;;1.50;1.23;;;28.70;52.30;;;;;;5253967;28;20052;-72
2022/07/02 14:19:59;;;;;;;1.42;1.10;;;28.80;52.70;;;;;;5258710;28;20062;-73
2022/07/02 14:22:38;;;;;;;1.50;0.93;;;29.00;53.40;;;;;;5254869;27;20056;-73
2022/07/02 14:25:10;;;;;;;4.53;1.30;;;29.40;51.70;;;;;;5259821;28;20051;-73
2022/07/02 14:27:43;;;;;;;4.50;1.10;;;29.90;53.00;;;;;;5254089;27;20048;-73
2022/07/02 14:30:17;;;;;;;2.13;1.10;;;29.90;49.90;;;;;;5249716;27;20309;-73
2022/07/02 14:32:49;;;;;;;3.00;1.20;;;29.70;50.40;;;;;;5250341;27;20297;-72
2022/07/02 14:35:22;;;;;;;1.42;1.05;;;29.70;50.60;;;;;;5250195;28;20047;-72
2022/07/02 14:37:55;;;;;;;1.48;1.10;;;29.30;50.20;;;;;;5252955;28;20058;-72
2022/07/02 14:40:28;;;;;;;4.00;1.00;;;29.00;50.40;;;;;;5247022;28;20059;-72
2022/07/02 14:43:01;;;;;;;1.33;1.23;;;29.30;50.30;;;;;;5253390;28;20056;-71
2022/07/02 14:45:33;;;;;;;2.92;1.05;;;29.00;50.60;;;;;;5250157;27;20471;-72
2022/07/02 14:48:07;;;;;;;1.88;1.10;;;28.60;51.50;;;;;;5252371;28;20051;-73
2022/07/02 14:50:40;;;;;;;2.88;1.02;;;28.80;52.10;;;;;;5254244;28;20497;-72
2022/07/02 14:53:12;;;;;;;4.40;1.20;;;28.10;51.80;;;;;;5248500;27;20418;-73
2022/07/02 14:55:45;;;;;;;5.82;1.15;;;28.20;52.90;;;;;;5257053;28;20799;-73
2022/07/02 14:58:17;;;;;;;2.03;1.27;;;28.40;52.70;;;;;;5255439;28;20051;-73
2022/07/02 15:00:50;;;;;;;4.03;1.33;;;28.50;52.60;;;;;;5225923;27;20445;-73
2022/07/02 15:03:22;;;;;;;1.40;1.15;;;28.80;52.30;;;;;;5256292;27;20048;-71
2022/07/02 15:05:55;;;;;;;2.45;1.10;;;28.80;51.60;;;;;;5259259;27;20047;-75
2022/07/02 15:08:33;;;;;;;2.15;1.20;;;28.80;51.50;;;;;;5254821;28;20051;-74
2022/07/02 15:11:06;;;;;;;1.02;1.00;;;28.70;52.00;;;;;;5233342;27;20509;-75
2022/07/02 15:16:31;;;;;;;3.33;1.08;;;28.70;52.30;;;;;;5230684;27;21375;-75
2022/07/02 15:19:04;;;;;;;1.05;0.90;;;29.00;51.20;;;;;;5233664;27;20055;-75
2022/07/02 15:21:46;;;;;;;1.20;1.10;;;29.20;51.10;;;;;;5227652;28;20114;-75
2022/07/02 15:24:25;;;;;;;2.00;0.85;;;29.20;50.30;;;;;;5239578;27;20043;-75
2022/07/02 15:27:06;;;;;;;3.90;1.20;;;28.80;50.70;;;;;;5244152;28;20035;-75
2022/07/02 15:29:40;;;;;;;3.95;1.13;;;28.80;50.80;;;;;;5240393;28;20040;-75
2022/07/02 15:32:13;;;;;;;2.25;1.13;;;28.90;51.30;;;;;;5236620;27;20047;-75
2022/07/02 15:34:46;;;;;;;3.15;1.20;;;28.90;51.40;;;;;;5250968;28;20094;-75
2022/07/02 15:37:20;;;;;;;;;;;28.90;51.10;;;;;;5238407;27;20048;-74
2022/07/02 15:39:52;;;;;;;2.33;1.20;;;28.90;50.50;;;;;;5231330;27;19928;-74
2022/07/02 15:42:27;;;;;;;2.20;0.98;;;28.80;50.60;;;;;;5226253;27;20635;-74
2022/07/02 15:45:01;;;;;;;1.35;1.10;;;28.50;51.30;;;;;;5236602;28;20051;-74
2022/07/02 15:47:42;;;;;;;2.00;1.20;;;28.50;51.10;;;;;;5237536;28;20094;-74
2022/07/02 15:50:15;;;;;;;3.45;1.30;;;28.50;51.80;;;;;;5229460;27;20048;-74
2022/07/02 15:53:04;;;;;;;1.52;1.23;;;28.60;51.50;;;;;;5219942;27;20056;-76
2022/07/02 15:55:39;;;;;;;1.40;1.13;;;28.80;51.80;;;;;;5208926;28;20395;-74
2022/07/02 15:58:19;;;;;;;2.42;1.13;;;28.50;50.60;;;;;;5226475;27;21226;-75
2022/07/02 16:00:53;;;;;;;2.05;1.30;;;28.50;51.60;;;;;;5235881;28;20300;-73
2022/07/02 16:03:29;;;;;;;2.15;1.33;;;28.70;50.70;;;;;;5235495;27;20889;-76
2022/07/02 16:06:02;;;;;;;4.85;1.13;;;28.90;51.30;;;;;;5226960;28;20143;-73
2022/07/02 16:08:35;;;;;;;2.60;1.20;;;28.90;50.50;;;;;;5233579;27;20043;-74
2022/07/02 16:11:16;;;;;;;2.40;1.30;;;28.60;50.80;;;;;;5231811;27;20056;-74
2022/07/02 16:13:48;;;;;;;2.50;1.30;;;28.60;50.90;;;;;;5224473;27;20512;-75
2022/07/02 16:16:29;;;;;;;3.67;1.20;;;28.40;51.70;;;;;;5239263;27;20048;-74
2022/07/02 16:19:02;;;;;;;1.90;1.27;;;28.50;51.20;;;;;;5238505;27;20063;-74
2022/07/02 16:21:43;;;;;;;5.75;0.93;;;28.50;51.80;;;;;;5242463;28;20055;-74
2022/07/02 16:24:19;;;;;;;1.88;1.20;;;28.70;50.50;;;;;;5234469;28;20046;-74
2022/07/02 16:26:52;;;;;;;5.65;1.33;;;28.60;50.70;;;;;;5247063;28;21293;-74
2022/07/02 16:29:27;;;;;;;1.50;1.10;;;28.70;51.00;;;;;;5236669;28;20040;-75
2022/07/02 16:32:00;;;;;;;1.45;1.08;;;28.80;50.30;;;;;;5243681;28;20511;-75
2022/07/02 16:34:44;;;;;;;3.55;1.40;;;28.50;51.00;;;;;;5240353;28;20077;-74
2022/07/02 16:37:23;;;;;;;3.38;0.93;;;28.70;50.40;;;;;;5234960;28;20063;-75
2022/07/02 16:40:03;;;;;;;3.92;1.45;;;28.40;50.60;;;;;;5224162;28;20055;-75
2022/07/02 16:42:38;;;;;;;1.60;1.30;;;28.50;51.20;;;;;;5235846;28;20062;-76
2022/07/02 16:45:14;;;;;;;1.40;1.10;;;28.60;50.90;;;;;;5222663;28;20380;-74
2022/07/02 16:47:47;;;;;;;1.60;1.10;;;29.00;50.60;;;;;;5242211;28;20525;-75
2022/07/02 16:50:20;;;;;;;2.28;1.30;;;28.90;49.70;;;;;;5244463;28;20362;-74
2022/07/02 16:52:53;;;;;;;;;;;29.00;50.00;;;;;;5233891;28;21022;-75
2022/07/02 16:55:26;;;;;;;1.77;1.10;;;28.90;49.80;;;;;;5237556;28;20229;-75
2022/07/02 16:57:59;;;;;;;1.33;1.13;;;28.90;49.80;;;;;;5235110;28;20050;-75
2022/07/02 17:00:31;;;;;;;1.23;1.02;;;28.70;49.50;;;;;;5252799;27;21623;-75
2022/07/02 17:03:06;;;;;;;2.78;1.38;;;28.10;50.90;;;;;;5251478;28;20423;-74
2022/07/02 17:05:43;;;;;;;2.20;1.10;;;27.70;51.80;;;;;;5253459;27;20044;-74
2022/07/02 17:08:15;;;;;;;2.42;1.63;;;27.00;53.20;;;;;;5235654;28;20051;-75
2022/07/02 17:13:40;;;;;;;2.42;1.23;;;26.20;54.90;;;;;;5247735;27;20043;-74
2022/07/02 17:16:12;;;;;;;1.90;1.27;;;25.80;55.70;;;;;;5239504;28;20065;-75
2022/07/02 17:18:45;;;;;;;3.47;1.53;;;25.40;56.70;;;;;;5242283;28;20302;-75
2022/07/02 17:21:18;;;;;;;1.40;1.30;;;25.20;56.70;;;;;;5234815;28;22816;-75
2022/07/02 17:23:50;;;;;;;2.65;1.50;;;25.10;57.50;;;;;;5245202;28;20048;-73
2022/07/02 17:26:23;;;;;;;1.30;1.20;;;24.80;57.80;;;;;;5245578;28;20052;-74
2022/07/02 17:29:00;;;;;;;1.90;1.55;;;24.50;58.30;;;;;;5252950;28;20044;-75
2022/07/02 17:31:33;;;;;;;2.72;1.58;;;24.30;58.80;;;;;;5249189;28;20435;-74
2022/07/02 17:34:06;;;;;;;1.55;1.30;;;24.00;59.20;;;;;;5252175;28;20522;-74
2022/07/02 17:36:39;;;;;;;2.35;1.33;;;23.90;59.30;;;;;;5260743;28;20048;-74
2022/07/02 17:39:11;;;;;;;2.00;1.77;;;23.80;59.00;;;;;;5246883;28;20052;-76
2022/07/02 17:41:44;;;;;;;6.05;1.70;;;23.70;59.30;;;;;;5247651;28;20521;-75
2022/07/02 17:44:16;;;;;;;3.85;1.50;;;23.70;59.60;;;;;;4516363;28;10000669;-74
2022/07/02 17:46:49;;;;;;;2.73;1.80;;;;;;;;;;5244470;28;20052;-75
2022/07/02 17:49:22;;;;;;;1.65;1.50;;;;;;;;;;5246804;28;20040;-75
2022/07/02 17:51:54;;;;;;;2.30;1.40;;;23.30;60.60;;;;;;5239779;28;20051;-74
2022/07/02 17:54:27;;;;;;;2.47;1.42;;;;;;;;;;5236283;28;20067;-74
2022/07/02 17:57:00;;;;;;;4.90;1.88;;;;;;;;;;5244080;27;20044;-74
2022/07/02 17:59:34;;;;;;;3.30;1.33;;;;;;;;;;5235647;28;21375;-74
2022/07/02 18:02:07;;;;;;;5.13;1.85;;;;;;;;;;5230104;28;20052;-74
2022/07/02 18:04:40;;;;;;;;;;;;;;;;;;5237965;28;20051;-74
2022/07/02 18:07:13;;;;;;;3.42;1.70;;;22.80;62.20;;;;;;5249274;27;19924;-75
2022/07/02 18:09:45;;;;;;;1.98;1.35;;;22.70;62.60;;;;;;5238867;27;20036;-75
2022/07/02 18:12:18;;;;;;;4.35;1.65;;;22.60;63.20;;;;;;5244638;27;20047;-74
2022/07/02 18:14:50;;;;;;;3.97;1.33;;;22.60;63.30;;;;;;5246245;28;21129;-74
2022/07/02 18:17:23;;;;;;;3.10;1.52;;;22.50;63.40;;;;;;5229614;27;20047;-74
2022/07/02 18:19:55;;;;;;;2.97;1.67;;;22.50;63.80;;;;;;5246801;28;20044;-76
2022/07/02 18:22:28;;;;;;;4.47;1.83;;;22.40;64.20;;;;;;5234280;28;20052;-74
2022/07/02 18:25:01;;;;;;;2.15;1.63;;;22.40;64.40;;;;;;5251011;28;20052;-75
2022/07/02 18:27:34;;;;;;;3.10;1.67;;;22.30;63.80;;;;;;5243193;27;20056;-74
2022/07/02 18:30:07;;;;;;;2.13;1.70;;;22.20;64.30;;;;;;5233661;28;20054;-74
2022/07/02 18:32:40;;;;;;;4.00;1.50;;;22.10;65.00;;;;;;5251079;28;20067;-74
2022/07/02 18:35:13;;;;;;;3.13;1.30;;;22.00;65.00;;;;;;5244793;27;20043;-75
2022/07/02 18:37:45;;;;;;;2.40;1.50;;;22.00;64.90;;;;;;5239129;28;20040;-74
2022/07/02 18:40:18;;;;;;;2.55;1.35;;;21.50;65.20;;;;;;5234035;27;20495;-75
2022/07/02 18:42:50;;;;;;;4.22;1.42;;;21.80;65.40;;;;;;5229871;27;20352;-75
2022/07/02 18:45:23;;;;;;;4.18;1.50;;;;;;;;;;5238981;28;21169;-74
2022/07/02 18:47:56;;;;;;;1.58;1.30;;;;;;;;;;5243264;27;20044;-74
2022/07/02 18:50:29;;;;;;;5.63;1.70;;;;;;;;;;5232952;27;20048;-74
2022/07/02 18:53:02;;;;;;;3.57;1.50;;;;;;;;;;5234201;28;20044;-75
2022/07/02 18:55:35;;;;;;;2.47;1.35;;;;;;;;;;5218771;27;20294;-75
2022/07/02 18:58:09;;;;;;;2.03;1.42;;;;;;;;;;5233433;27;20047;-75
2022/07/02 19:00:42;;;;;;;2.65;1.10;;;;;;;;;;5235511;27;20040;-75
2022/07/02 19:03:16;;;;;;;3.53;1.80;;;;;;;;;;5242335;27;20055;-75
2022/07/02 19:05:49;;;;;;;1.83;1.45;;;;;;;;;;5234348;28;20079;-75
2022/07/02 19:08:23;;;;;;;2.50;1.35;;;;;;;;;;5229717;28;20048;-76
2022/07/02 19:10:56;;;;;;;2.33;1.42;;;;;;;;;;5238931;28;20048;-75
2022/07/02 19:13:29;;;;;;;2.13;1.60;;;;;;;;;;5239735;28;20972;-75
2022/07/02 19:16:02;;;;;;;6.35;1.70;;;;;;;;;;5240871;28;20451;-75
2022/07/02 19:18:35;;;;;;;3.85;1.60;;;;;;;;;;5251217;28;21063;-74
2022/07/02 19:21:10;;;;;;;4.50;1.50;;;;;;;;;;5240341;28;20052;-75
2022/07/02 19:23:43;;;;;;;2.20;1.60;;;;;;;;;;5244036;27;20067;-75
2022/07/02 19:31:59;;;;;;;1.90;1.55;;;19.80;76.70;;;;;;5235266;27;20048;-75
2022/07/02 19:34:32;;;;;;;2.17;1.52;;;19.70;77.10;;;;;;5228172;28;20055;-75
2022/07/02 19:37:04;;;;;;;2.15;1.52;;;19.50;77.70;;;;;;5238904;28;20048;-74
2022/07/02 19:39:37;;;;;;;5.45;1.80;;;19.40;78.20;;;;;;5239864;28;20085;-74
2022/07/02 19:42:10;;;;;;;2.55;1.80;;;19.10;79.20;;;;;;5248273;28;20894;-75
2022/07/02 19:44:43;;;;;;;3.40;2.28;;;19.00;79.20;;;;;;5250212;28;20850;-75
2022/07/02 19:47:16;;;;;;;6.75;3.50;;;;;;;;;;5249601;28;20067;-75
2022/07/02 19:49:49;;;;;;;3.87;2.57;;;;;;;;;;5233504;27;20083;-74
2022/07/02 19:52:22;;;;;;;2.43;1.77;;;;;;;;;;5233621;27;20044;-75
2022/07/02 19:54:55;;;;;;;4.30;2.27;;;;;;;;;;5238099;27;20051;-75
2022/07/02 19:57:27;;;;;;;3.77;2.20;;;18.70;81.30;;;;;;5222731;27;20062;-75
2022/07/02 20:00:00;;;;;;;5.73;2.20;;;;;;;;;;5228887;27;20052;-74
2022/07/02 20:02:33;;;;;;;4.25;2.15;;;;;;;;;;5232987;27;20047;-75
2022/07/02 20:05:06;;;;;;;2.60;2.35;;;;;;;;;;5235539;27;20074;-75
2022/07/02 20:07:43;;;;;;;7.15;2.20;;;;;;;;;;5243537;28;20051;-74
2022/07/02 20:10:16;;;;;;;3.67;2.60;;;;;;;;;;5241932;27;20035;-75
2022/07/02 20:12:49;;;;;;;6.10;2.53;;;;;;;;;;5236029;27;20761;-75
2022/07/02 20:15:22;;;;;;;5.43;2.40;;;;;;;;;;5236629;27;20613;-74
2022/07/02 20:17:55;;;;;;;7.45;2.15;;;;;;;;;;5224075;28;20066;-74
2022/07/02 20:20:28;;;;;;;6.10;2.60;;;;;;;;;;5237537;28;20050;-75
2022/07/02 20:23:01;;;;;;;7.15;2.70;;;;;;;;;;5253535;28;20079;-74
2022/07/02 20:25:34;;;;;;;3.73;2.30;;;;;;;;;;5247671;28;20054;-75
2022/07/02 20:28:07;;;;;;;3.92;2.30;;;;;;;;;;5228730;27;20585;-74
2022/07/02 20:30:40;;;;;;;10.00;2.80;;;17.80;85.70;;;;;;5244198;28;20043;-75
2022/07/02 20:33:13;;;;;;;3.58;2.40;;;17.80;85.30;;;;;;5248232;27;20684;-74
2022/07/02 20:35:46;;;;;;;4.75;2.38;;;17.70;86.40;;;;;;5250054;27;20044;-75
2022/07/02 20:38:18;;;;;;;6.05;3.33;;;17.70;87.20;;;;;;5249374;28;20051;-74
2022/07/02 20:40:50;;;;;;;5.97;2.58;;;17.60;87.90;;;;;;5251212;27;20052;-75
2022/07/02 20:43:23;;;;;;;4.00;2.50;;;17.60;88.20;;;;;;5243693;28;20056;-75
2022/07/02 20:45:55;;;;;;;3.03;2.42;;;17.40;90.00;;;;;;5230332;28;20792;-74
2022/07/02 20:48:28;;;;;;;2.75;2.15;;;17.30;89.90;;;;;;5235222;28;20043;-74
2022/07/02 20:51:03;;;;;;;4.97;2.95;;;;;;;;;;5258744;28;20048;-74
2022/07/02 20:53:36;;;;;;;3.25;2.47;;;;;;;;;;5253714;28;20051;-75
2022/07/02 20:56:08;;;;;;;3.85;2.88;;;;;;;;;;5249125;28;20050;-75
2022/07/02 20:58:41;;;;;;;5.38;2.63;;;;;;;;;;5253858;27;21027;-74
2022/07/02 21:01:14;;;;;;;7.40;3.10;;;;;;;;;;5244563;28;20047;-74
2022/07/02 21:03:47;;;;;;;5.10;2.97;;;;;;;;;;5247003;28;20314;-74
2022/07/02 21:06:20;;;;;;;3.70;2.83;;;;;;;;;;5245305;22;20053;-72
2022/07/02 21:08:52;;;;;;;5.67;3.17;;;;;;;;;;5208305;28;20041;-70
2022/07/02 21:11:28;;;;;;;3.47;2.80;;;;;;;;;;5193826;28;20047;-72
2022/07/02 21:14:01;;;;;;;4.55;3.35;;;;;;;;;;5178076;28;20056;-72
2022/07/02 21:16:33;;;;;;;8.30;3.40;;;;;;;;;;5188039;28;20040;-70
2022/07/02 21:19:11;;;;;;;3.73;3.07;;;;;;;;;;5213233;22;20053;-77
2022/07/02 21:21:44;;;;;;;4.93;3.33;;;;;;;;;;5196031;28;20291;-76
2022/07/02 21:24:17;;;;;;;7.38;3.20;;;;;;;;;;5216234;28;20049;-75
2022/07/02 21:26:49;;;;;;;6.95;3.33;;;16.90;97.10;;;;;;5220509;28;20053;-76
2022/07/02 21:29:22;;;;;;;5.45;3.10;;;16.80;96.90;;;;;;5204053;28;20056;-75
2022/07/02 21:31:54;;;;;;;6.60;3.30;;;16.70;98.50;;;;;;5210758;28;20529;-75
2022/07/02 21:34:47;;;;;;;8.05;3.20;;;16.60;99.90;;;;;;5216941;28;20060;-76
2022/07/02 21:37:19;;;;;;;8.60;3.42;;;16.60;99.90;;;;;;5195881;28;20052;-76
2022/07/02 21:39:55;;;;;;;7.53;3.80;;;16.50;99.90;;;;;;5219322;28;20630;-75
2022/07/02 21:42:27;;;;;;;5.93;3.58;;;16.40;99.90;;;;;;5178918;28;20115;-75
2022/07/02 21:45:00;;;;;;;4.10;3.17;;;16.50;99.90;;;;;;5213736;28;20057;-76
2022/07/02 21:47:33;;;;;;;5.88;3.45;;;16.50;99.90;;;;;;5189304;28;21016;-76
2022/07/02 21:50:06;;;;;;;4.40;3.10;;;;;;;;;;5193781;28;20056;-77
2022/07/02 21:52:39;;;;;;;4.85;3.50;;;;;;;;;;5208967;28;20052;-76
2022/07/02 21:55:12;;;;;;;5.93;3.50;;;;;;;;;;5187900;28;20045;-76
2022/07/02 21:57:44;;;;;;;5.93;3.73;;;;;;;;;;5204306;28;20044;-75
2022/07/02 22:00:18;;;;;;;7.17;3.83;;;16.50;99.90;;;;;;5209606;28;20493;-75
2022/07/02 22:02:51;;;;;;;7.28;3.40;;;16.50;99.90;;;;;;5203998;28;20122;-76
2022/07/02 22:05:24;;;;;;;5.93;3.78;;;16.40;99.90;;;;;;5205220;28;20060;-76
2022/07/02 22:07:56;;;;;;;6.47;3.75;;;16.30;99.90;;;;;;5187187;28;20057;-76
2022/07/02 22:10:29;;;;;;;4.50;3.55;;;16.30;99.90;;;;;;5208766;28;20293;-75
2022/07/02 22:13:01;;;;;;;6.70;4.00;;;16.20;99.90;;;;;;5207033;28;20049;-76
2022/07/02 22:15:35;;;;;;;7.25;4.97;;;14.70;99.90;;;;;;5183500;28;20052;-75
2022/07/02 22:18:08;;;;;;;6.30;4.97;;;15.90;99.90;;;;;;5206465;28;20049;-75
2022/07/02 22:20:53;;;;;;;8.82;4.88;;;;;;;;;;5208043;28;20053;-77
2022/07/02 22:23:27;;;;;;;6.18;4.50;;;;;;;;;;5199360;28;20897;-75
2022/07/02 22:26:00;;;;;;;11.55;5.75;;;;;;;;;;5184780;28;20761;-77
2022/07/02 22:28:34;;;;;;;9.48;6.75;;;;;;;;;;5185133;28;20479;-75
2022/07/02 22:31:07;;;;;;;9.27;6.43;;;;;;;;;;5204544;28;20040;-76
2022/07/02 22:33:40;;;;;;;11.73;6.60;;;;;;;;;;5208105;28;20052;-76
2022/07/02 22:36:12;;;;;;;8.85;6.90;;;16.00;99.90;;;;;;5213102;28;20037;-76
2022/07/02 22:38:45;;;;;;;9.38;7.03;;;16.00;99.90;;;;;;5216851;28;20065;-76
2022/07/02 22:41:24;;;;;;;11.65;7.60;;;15.90;99.90;;;;;;5215930;28;20052;-75
2022/07/02 22:43:57;;;;;;;11.70;7.32;;;15.80;99.90;;;;;;4520202;28;10000510;-76
2022/07/02 22:46:29;;;;;;;12.43;7.57;;;15.70;99.90;;;;;;5211544;28;20051;-76
2022/07/02 22:49:02;;;;;;;16.65;8.25;;;15.70;99.90;;;;;;5191364;28;20052;-76
2022/07/02 22:51:35;;;;;;;13.65;8.48;;;15.60;99.90;;;;;;5184770;28;20516;-77
2022/07/02 22:54:07;;;;;;;12.38;8.10;;;18.00;99.90;;;;;;5168308;28;20041;-76
2022/07/02 22:56:40;;;;;;;13.60;7.60;;;15.60;99.90;;;;;;5203726;28;20048;-74
2022/07/02 22:59:17;;;;;;;10.10;7.13;;;;;;;;;;5210010;28;20044;-76
2022/07/02 23:01:51;;;;;;;10.65;7.30;;;;;;;;;;5201312;28;20061;-76
2022/07/02 23:04:24;;;;;;;10.63;7.72;;;;;;;;;;5207804;28;20064;-77
2022/07/02 23:06:57;;;;;;;11.82;7.47;;;;;;;;;;5211178;28;20044;-76
2022/07/02 23:09:30;;;;;;;13.02;9.30;;;;;;;;;;5206967;28;20594;-76
2022/07/02 23:12:03;;;;;;;14.43;10.05;;;15.80;99.90;;;;;;5207598;28;20313;-75
2022/07/02 23:14:35;;;;;;;14.27;9.88;;;15.80;99.90;;;;;;5165333;28;20045;-74
2022/07/02 23:17:08;;;;;;;16.73;10.00;;;15.70;99.90;;;;;;5209729;28;20049;-77
2022/07/02 23:19:41;;;;;;;14.02;10.07;;;15.70;99.90;;;;;;5210595;28;20416;-75
2022/07/02 23:22:13;;;;;;;16.30;10.50;;;15.70;99.90;;;;;;5193630;28;20441;-76